sensor_id;sensor_type;location;lat;lon;timestamp;pressure;altitude;pressure_sealevel;temperature;humidity
24390;BME280;12510;56.468;-3.004;2023-04-04T00:00:26;101763.84;;;9.62;100.00
24390;BME280;12510;56.468;-3.004;2023-04-04T00:02:53;101752.50;;;9.75;100.00
24390;BME280;12510;56.468;-3.004;2023-04-04T00:05:19;101749.94;;;9.60;100.00
24390;BME280;12510;56.468;-3.004;2023-04-04T00:07:46;101750.19;;;9.70;100.00
24390;BME280;12510;56.468;-3.004;2023-04-04T00:10:12;101759.41;;;9.63;100.00
24390;BME280;12510;56.468;-3.004;2023-04-04T00:12:39;101746.69;;;9.56;100.00
24390;BME280;12510;56.468;-3.004;2023-04-04T00:15:06;101751.63;;;9.61;100.00
24390;BME280;12510;56.468;-3.004;2023-04-04T00:17:32;101747.91;;;9.51;100.00
24390;BME280;12510;56.468;-3.004;2023-04-04T00:19:59;101752.03;;;9.55;100.00
24390;BME280;12510;56.468;-3.004;2023-04-04T00:22:25;101744.47;;;9.50;100.00
24390;BME280;12510;56.468;-3.004;2023-04-04T00:24:52;101752.25;;;9.52;100.00
24390;BME280;12510;56.468;-3.004;2023-04-04T00:31:21;101754.94;;;9.37;100.00
24390;BME280;12510;56.468;-3.004;2023-04-04T00:41:20;101752.34;;;9.10;100.00
24390;BME280;12510;56.468;-3.004;2023-04-04T00:43:47;101748.78;;;9.11;100.00
24390;BME280;12510;56.468;-3.004;2023-04-04T00:46:14;101750.16;;;9.17;100.00
24390;BME280;12510;56.468;-3.004;2023-04-04T02:29:09;101677.28;;;7.94;100.00
24390;BME280;12510;56.468;-3.004;2023-04-04T02:31:37;101675.22;;;7.84;100.00
24390;BME280;12510;56.468;-3.004;2023-04-04T02:38:37;101665.00;;;7.94;100.00
24390;BME280;12510;56.468;-3.004;2023-04-04T02:41:05;101665.41;;;7.88;100.00
24390;BME280;12510;56.468;-3.004;2023-04-04T02:43:34;101659.59;;;7.83;100.00
24390;BME280;12510;56.468;-3.004;2023-04-04T02:46:05;101659.38;;;7.86;100.00
24390;BME280;12510;56.468;-3.004;2023-04-04T02:48:32;101661.84;;;7.89;100.00
24390;BME280;12510;56.468;-3.004;2023-04-04T02:51:01;101660.16;;;8.02;100.00
24390;BME280;12510;56.468;-3.004;2023-04-04T02:53:29;101653.78;;;7.92;100.00
24390;BME280;12510;56.468;-3.004;2023-04-04T02:56:02;101653.97;;;7.89;100.00
24390;BME280;12510;56.468;-3.004;2023-04-04T02:58:33;101646.56;;;7.81;100.00
24390;BME280;12510;56.468;-3.004;2023-04-04T03:00:59;101657.16;;;7.80;100.00
24390;BME280;12510;56.468;-3.004;2023-04-04T03:03:29;101655.38;;;7.80;100.00
24390;BME280;12510;56.468;-3.004;2023-04-04T03:05:57;101652.06;;;7.77;100.00
24390;BME280;12510;56.468;-3.004;2023-04-04T03:08:26;101650.94;;;7.81;100.00
24390;BME280;12510;56.468;-3.004;2023-04-04T03:10:56;101649.91;;;7.83;100.00
24390;BME280;12510;56.468;-3.004;2023-04-04T03:13:22;101651.16;;;7.78;100.00
24390;BME280;12510;56.468;-3.004;2023-04-04T03:15:49;101650.03;;;7.96;100.00
24390;BME280;12510;56.468;-3.004;2023-04-04T03:18:16;101642.06;;;7.98;100.00
24390;BME280;12510;56.468;-3.004;2023-04-04T03:20:43;101648.16;;;7.98;100.00
24390;BME280;12510;56.468;-3.004;2023-04-04T03:23:09;101650.41;;;7.90;100.00
24390;BME280;12510;56.468;-3.004;2023-04-04T03:25:36;101634.66;;;8.04;100.00
24390;BME280;12510;56.468;-3.004;2023-04-04T03:28:09;101634.84;;;8.01;100.00
24390;BME280;12510;56.468;-3.004;2023-04-04T03:30:39;101636.91;;;8.11;100.00
24390;BME280;12510;56.468;-3.004;2023-04-04T03:36:54;101636.03;;;8.10;100.00
24390;BME280;12510;56.468;-3.004;2023-04-04T03:39:27;101632.69;;;8.08;100.00
24390;BME280;12510;56.468;-3.004;2023-04-04T03:41:56;101628.84;;;7.99;100.00
24390;BME280;12510;56.468;-3.004;2023-04-04T03:44:23;101623.22;;;7.91;100.00
24390;BME280;12510;56.468;-3.004;2023-04-04T03:46:50;101626.41;;;7.96;100.00
24390;BME280;12510;56.468;-3.004;2023-04-04T03:49:17;101617.63;;;7.97;100.00
24390;BME280;12510;56.468;-3.004;2023-04-04T03:51:44;101621.28;;;7.95;100.00
24390;BME280;12510;56.468;-3.004;2023-04-04T03:54:10;101613.47;;;8.08;100.00
24390;BME280;12510;56.468;-3.004;2023-04-04T03:56:36;101613.69;;;7.90;100.00
24390;BME280;12510;56.468;-3.004;2023-04-04T03:59:05;101617.44;;;7.86;100.00
24390;BME280;12510;56.468;-3.004;2023-04-04T04:01:31;101613.09;;;7.85;100.00
24390;BME280;12510;56.468;-3.004;2023-04-04T04:03:58;101604.41;;;7.84;100.00
24390;BME280;12510;56.468;-3.004;2023-04-04T04:06:26;101605.53;;;7.80;100.00
24390;BME280;12510;56.468;-3.004;2023-04-04T04:08:52;101607.03;;;7.84;100.00
24390;BME280;12510;56.468;-3.004;2023-04-04T04:11:19;101609.19;;;7.78;100.00
24390;BME280;12510;56.468;-3.004;2023-04-04T04:21:33;101605.75;;;7.92;100.00
24390;BME280;12510;56.468;-3.004;2023-04-04T04:24:04;101600.44;;;8.06;100.00
24390;BME280;12510;56.468;-3.004;2023-04-04T04:26:38;101593.44;;;8.07;100.00
24390;BME280;12510;56.468;-3.004;2023-04-04T04:29:11;101599.53;;;8.07;100.00
24390;BME280;12510;56.468;-3.004;2023-04-04T04:31:42;101593.13;;;8.11;100.00
24390;BME280;12510;56.468;-3.004;2023-04-04T04:34:13;101599.31;;;8.10;100.00
24390;BME280;12510;56.468;-3.004;2023-04-04T04:36:46;101592.75;;;8.17;100.00
24390;BME280;12510;56.468;-3.004;2023-04-04T04:39:29;101583.97;;;8.04;100.00
24390;BME280;12510;56.468;-3.004;2023-04-04T04:42:19;101585.06;;;8.14;100.00
24390;BME280;12510;56.468;-3.004;2023-04-04T04:44:57;101585.28;;;7.97;100.00
24390;BME280;12510;56.468;-3.004;2023-04-04T04:47:29;101586.31;;;7.94;100.00
24390;BME280;12510;56.468;-3.004;2023-04-04T04:50:04;101587.28;;;7.93;100.00
24390;BME280;12510;56.468;-3.004;2023-04-04T04:52:38;101571.53;;;7.93;100.00
24390;BME280;12510;56.468;-3.004;2023-04-04T04:55:05;101581.00;;;7.96;100.00
24390;BME280;12510;56.468;-3.004;2023-04-04T04:57:34;101585.03;;;7.87;100.00
24390;BME280;12510;56.468;-3.004;2023-04-04T05:00:06;101584.19;;;7.86;100.00
24390;BME280;12510;56.468;-3.004;2023-04-04T05:02:33;101578.19;;;7.84;100.00
24390;BME280;12510;56.468;-3.004;2023-04-04T05:05:00;101586.53;;;7.77;100.00
24390;BME280;12510;56.468;-3.004;2023-04-04T05:07:27;101584.66;;;7.79;100.00
24390;BME280;12510;56.468;-3.004;2023-04-04T05:09:53;101579.88;;;7.85;100.00
24390;BME280;12510;56.468;-3.004;2023-04-04T05:12:22;101582.69;;;7.82;100.00
24390;BME280;12510;56.468;-3.004;2023-04-04T05:14:51;101579.13;;;7.83;100.00
24390;BME280;12510;56.468;-3.004;2023-04-04T05:17:17;101579.41;;;7.79;100.00
24390;BME280;12510;56.468;-3.004;2023-04-04T05:19:44;101583.69;;;7.94;100.00
24390;BME280;12510;56.468;-3.004;2023-04-04T05:22:15;101581.81;;;7.96;100.00
24390;BME280;12510;56.468;-3.004;2023-04-04T05:24:46;101583.78;;;7.93;100.00
24390;BME280;12510;56.468;-3.004;2023-04-04T05:27:16;101583.50;;;8.12;100.00
24390;BME280;12510;56.468;-3.004;2023-04-04T05:29:47;101593.66;;;7.89;100.00
24390;BME280;12510;56.468;-3.004;2023-04-04T05:32:14;101581.25;;;8.05;100.00
24390;BME280;12510;56.468;-3.004;2023-04-04T05:34:45;101585.16;;;8.13;100.00
24390;BME280;12510;56.468;-3.004;2023-04-04T05:37:17;101587.16;;;8.09;100.00
24390;BME280;12510;56.468;-3.004;2023-04-04T05:39:47;101590.06;;;8.04;100.00
24390;BME280;12510;56.468;-3.004;2023-04-04T05:42:14;101581.34;;;8.18;100.00
24390;BME280;12510;56.468;-3.004;2023-04-04T07:04:25;101565.13;;;14.07;100.00
24390;BME280;12510;56.468;-3.004;2023-04-04T07:06:52;101571.19;;;13.78;100.00
24390;BME280;12510;56.468;-3.004;2023-04-04T07:09:20;101554.09;;;13.51;100.00
24390;BME280;12510;56.468;-3.004;2023-04-04T07:11:46;101556.75;;;13.92;100.00
24390;BME280;12510;56.468;-3.004;2023-04-04T07:14:13;101559.03;;;14.16;100.00
24390;BME280;12510;56.468;-3.004;2023-04-04T07:16:39;101553.44;;;14.19;100.00
24390;BME280;12510;56.468;-3.004;2023-04-04T07:19:06;101559.25;;;14.03;100.00
24390;BME280;12510;56.468;-3.004;2023-04-04T07:21:32;101544.25;;;14.23;100.00
24390;BME280;12510;56.468;-3.004;2023-04-04T07:23:59;101553.88;;;14.44;100.00
24390;BME280;12510;56.468;-3.004;2023-04-04T07:26:27;101541.19;;;14.28;100.00
24390;BME280;12510;56.468;-3.004;2023-04-04T07:28:53;101547.16;;;14.30;100.00
24390;BME280;12510;56.468;-3.004;2023-04-04T07:31:20;101534.91;;;14.98;98.60
24390;BME280;12510;56.468;-3.004;2023-04-04T07:33:46;101540.78;;;14.52;100.00
24390;BME280;12510;56.468;-3.004;2023-04-04T07:36:13;101525.81;;;15.00;94.76
24390;BME280;12510;56.468;-3.004;2023-04-04T07:38:39;101526.69;;;15.66;92.01
24390;BME280;12510;56.468;-3.004;2023-04-04T07:41:06;101528.97;;;16.87;96.67
24390;BME280;12510;56.468;-3.004;2023-04-04T07:43:32;101509.53;;;17.13;82.56
24390;BME280;12510;56.468;-3.004;2023-04-04T07:45:59;101511.50;;;16.58;84.27
24390;BME280;12510;56.468;-3.004;2023-04-04T07:48:25;101509.97;;;17.00;77.18
24390;BME280;12510;56.468;-3.004;2023-04-04T07:51:11;101497.69;;;17.07;78.21
24390;BME280;12510;56.468;-3.004;2023-04-04T07:53:37;101497.66;;;17.85;75.41
24390;BME280;12510;56.468;-3.004;2023-04-04T07:56:24;101480.41;;;17.97;74.15
24390;BME280;12510;56.468;-3.004;2023-04-04T07:59:09;101476.75;;;18.23;68.42
24390;BME280;12510;56.468;-3.004;2023-04-04T08:01:36;101477.75;;;18.05;66.86
24390;BME280;12510;56.468;-3.004;2023-04-04T08:04:02;101472.97;;;19.54;69.60
24390;BME280;12510;56.468;-3.004;2023-04-04T08:06:30;101470.94;;;19.17;66.40
24390;BME280;12510;56.468;-3.004;2023-04-04T08:08:57;101468.03;;;18.79;61.95
24390;BME280;12510;56.468;-3.004;2023-04-04T08:11:23;101445.69;;;20.37;55.80
24390;BME280;12510;56.468;-3.004;2023-04-04T08:13:49;101450.53;;;20.33;53.58
24390;BME280;12510;56.468;-3.004;2023-04-04T08:16:16;101444.75;;;21.13;56.59
24390;BME280;12510;56.468;-3.004;2023-04-04T08:18:43;101429.28;;;22.09;54.96
24390;BME280;12510;56.468;-3.004;2023-04-04T08:21:09;101437.16;;;21.31;52.12
24390;BME280;12510;56.468;-3.004;2023-04-04T08:23:36;101430.63;;;20.89;49.35
24390;BME280;12510;56.468;-3.004;2023-04-04T08:26:02;101440.91;;;20.47;52.16
24390;BME280;12510;56.468;-3.004;2023-04-04T08:28:29;101443.91;;;20.29;54.26
24390;BME280;12510;56.468;-3.004;2023-04-04T08:30:55;101422.19;;;21.22;48.44
24390;BME280;12510;56.468;-3.004;2023-04-04T08:33:22;101428.66;;;21.86;50.21
24390;BME280;12510;56.468;-3.004;2023-04-04T08:35:51;101425.47;;;21.97;51.52
24390;BME280;12510;56.468;-3.004;2023-04-04T08:38:18;101427.19;;;20.80;49.61
24390;BME280;12510;56.468;-3.004;2023-04-04T08:40:46;101410.94;;;22.35;45.26
24390;BME280;12510;56.468;-3.004;2023-04-04T08:43:14;101418.44;;;21.96;47.84
24390;BME280;12510;56.468;-3.004;2023-04-04T08:45:42;101419.38;;;22.10;47.12
24390;BME280;12510;56.468;-3.004;2023-04-04T08:48:10;101416.09;;;21.86;46.34
24390;BME280;12510;56.468;-3.004;2023-04-04T08:50:40;101406.28;;;23.27;45.29
24390;BME280;12510;56.468;-3.004;2023-04-04T08:53:10;101400.25;;;22.76;44.65
24390;BME280;12510;56.468;-3.004;2023-04-04T08:55:37;101404.91;;;22.33;45.53
24390;BME280;12510;56.468;-3.004;2023-04-04T08:58:04;101398.44;;;23.32;42.00
24390;BME280;12510;56.468;-3.004;2023-04-04T09:00:31;101401.06;;;23.94;44.58
24390;BME280;12510;56.468;-3.004;2023-04-04T09:05:48;101389.22;;;23.82;40.99
24390;BME280;12510;56.468;-3.004;2023-04-04T09:08:16;101399.91;;;22.93;45.22
24390;BME280;12510;56.468;-3.004;2023-04-04T09:10:44;101385.88;;;23.53;42.22
24390;BME280;12510;56.468;-3.004;2023-04-04T09:13:29;101387.94;;;22.96;44.46
24390;BME280;12510;56.468;-3.004;2023-04-04T09:15:55;101382.91;;;23.27;42.35
24390;BME280;12510;56.468;-3.004;2023-04-04T09:18:23;101390.19;;;21.35;44.86
24390;BME280;12510;56.468;-3.004;2023-04-04T09:20:49;101401.41;;;21.46;47.33
24390;BME280;12510;56.468;-3.004;2023-04-04T09:23:17;101381.25;;;22.15;45.88
24390;BME280;12510;56.468;-3.004;2023-04-04T09:25:50;101396.25;;;20.63;48.09
24390;BME280;12510;56.468;-3.004;2023-04-04T09:31:05;101377.75;;;22.77;45.00
24390;BME280;12510;56.468;-3.004;2023-04-04T09:33:33;101373.53;;;23.99;42.54
24390;BME280;12510;56.468;-3.004;2023-04-04T09:36:17;101364.53;;;24.65;41.38
24390;BME280;12510;56.468;-3.004;2023-04-04T09:38:44;101348.88;;;25.90;38.56
24390;BME280;12510;56.468;-3.004;2023-04-04T09:41:15;101349.34;;;24.84;39.56
24390;BME280;12510;56.468;-3.004;2023-04-04T09:43:44;101368.22;;;23.17;42.27
24390;BME280;12510;56.468;-3.004;2023-04-04T09:46:10;101355.50;;;24.19;40.54
24390;BME280;12510;56.468;-3.004;2023-04-04T09:48:37;101368.69;;;22.79;42.80
24390;BME280;12510;56.468;-3.004;2023-04-04T09:51:04;101355.66;;;23.37;42.28
24390;BME280;12510;56.468;-3.004;2023-04-04T09:53:35;101354.19;;;22.80;42.66
24390;BME280;12510;56.468;-3.004;2023-04-04T09:56:08;101380.09;;;21.16;49.79
24390;BME280;12510;56.468;-3.004;2023-04-04T09:58:35;101364.75;;;23.23;45.60
24390;BME280;12510;56.468;-3.004;2023-04-04T10:01:03;101352.56;;;23.27;43.63
24390;BME280;12510;56.468;-3.004;2023-04-04T10:03:35;101358.63;;;21.96;46.60
24390;BME280;12510;56.468;-3.004;2023-04-04T10:06:06;101352.00;;;22.97;43.86
24390;BME280;12510;56.468;-3.004;2023-04-04T10:08:33;101346.78;;;23.57;44.80
24390;BME280;12510;56.468;-3.004;2023-04-04T10:11:03;101338.91;;;23.35;43.97
24390;BME280;12510;56.468;-3.004;2023-04-04T10:13:31;101341.63;;;23.75;44.20
24390;BME280;12510;56.468;-3.004;2023-04-04T10:15:59;101352.06;;;21.98;46.19
24390;BME280;12510;56.468;-3.004;2023-04-04T10:18:28;101351.00;;;23.04;47.22
24390;BME280;12510;56.468;-3.004;2023-04-04T10:21:13;101345.63;;;22.98;44.99
24390;BME280;12510;56.468;-3.004;2023-04-04T10:23:41;101336.84;;;23.51;43.96
24390;BME280;12510;56.468;-3.004;2023-04-04T10:26:07;101357.50;;;20.73;49.17
24390;BME280;12510;56.468;-3.004;2023-04-04T10:28:35;101348.78;;;22.66;48.19
24390;BME280;12510;56.468;-3.004;2023-04-04T10:31:08;101343.63;;;23.26;47.01
24390;BME280;12510;56.468;-3.004;2023-04-04T10:36:11;101330.63;;;22.68;45.53
24390;BME280;12510;56.468;-3.004;2023-04-04T10:38:42;101357.97;;;20.92;48.96
24390;BME280;12510;56.468;-3.004;2023-04-04T10:41:11;101361.47;;;20.48;52.05
24390;BME280;12510;56.468;-3.004;2023-04-04T10:43:59;101363.81;;;19.98;54.66
24390;BME280;12510;56.468;-3.004;2023-04-04T10:46:32;101371.63;;;18.82;60.46
24390;BME280;12510;56.468;-3.004;2023-04-04T10:49:00;101367.19;;;19.45;59.47
24390;BME280;12510;56.468;-3.004;2023-04-04T10:51:29;101374.13;;;19.77;59.71
24390;BME280;12510;56.468;-3.004;2023-04-04T10:53:56;101356.38;;;20.68;56.02
24390;BME280;12510;56.468;-3.004;2023-04-04T10:56:23;101362.94;;;20.35;62.23
24390;BME280;12510;56.468;-3.004;2023-04-04T10:59:13;101350.84;;;20.39;55.88
24390;BME280;12510;56.468;-3.004;2023-04-04T11:01:57;101336.09;;;21.47;52.06
24390;BME280;12510;56.468;-3.004;2023-04-04T11:04:30;101345.06;;;22.32;52.47
24390;BME280;12510;56.468;-3.004;2023-04-04T11:07:15;101347.81;;;21.82;51.83
24390;BME280;12510;56.468;-3.004;2023-04-04T11:12:13;101361.03;;;20.89;57.59
24390;BME280;12510;56.468;-3.004;2023-04-04T11:15:06;101352.06;;;21.76;52.52
24390;BME280;12510;56.468;-3.004;2023-04-04T11:17:51;101351.00;;;21.13;51.85
24390;BME280;12510;56.468;-3.004;2023-04-04T11:20:20;101350.28;;;20.44;51.13
24390;BME280;12510;56.468;-3.004;2023-04-04T11:22:49;101341.97;;;20.24;52.44
24390;BME280;12510;56.468;-3.004;2023-04-04T11:27:54;101355.38;;;19.86;53.17
24390;BME280;12510;56.468;-3.004;2023-04-04T11:30:22;101345.69;;;20.53;54.30
24390;BME280;12510;56.468;-3.004;2023-04-04T11:32:49;101334.03;;;21.64;50.38
24390;BME280;12510;56.468;-3.004;2023-04-04T11:35:16;101336.44;;;22.08;51.84
24390;BME280;12510;56.468;-3.004;2023-04-04T11:38:01;101323.44;;;21.55;49.21
24390;BME280;12510;56.468;-3.004;2023-04-04T11:40:37;101316.97;;;22.28;46.38
24390;BME280;12510;56.468;-3.004;2023-04-04T11:43:11;101323.69;;;22.46;47.59
24390;BME280;12510;56.468;-3.004;2023-04-04T11:45:43;101314.50;;;22.26;47.32
24390;BME280;12510;56.468;-3.004;2023-04-04T11:48:10;101322.78;;;22.03;49.66
24390;BME280;12510;56.468;-3.004;2023-04-04T11:50:39;101325.25;;;21.98;48.66
24390;BME280;12510;56.468;-3.004;2023-04-04T11:53:06;101331.66;;;21.54;47.79
24390;BME280;12510;56.468;-3.004;2023-04-04T11:55:41;101336.94;;;20.59;51.13
24390;BME280;12510;56.468;-3.004;2023-04-04T11:58:09;101341.91;;;20.32;53.51
24390;BME280;12510;56.468;-3.004;2023-04-04T12:00:54;101335.72;;;20.17;52.73
24390;BME280;12510;56.468;-3.004;2023-04-04T12:03:21;101324.06;;;20.99;52.31
24390;BME280;12510;56.468;-3.004;2023-04-04T12:05:48;101338.88;;;19.82;56.09
24390;BME280;12510;56.468;-3.004;2023-04-04T12:08:15;101326.97;;;20.53;54.09
24390;BME280;12510;56.468;-3.004;2023-04-04T12:10:43;101318.59;;;21.07;51.47
24390;BME280;12510;56.468;-3.004;2023-04-04T12:13:10;101330.47;;;20.38;53.92
24390;BME280;12510;56.468;-3.004;2023-04-04T12:15:38;101338.31;;;19.40;59.87
24390;BME280;12510;56.468;-3.004;2023-04-04T12:18:07;101325.38;;;20.14;57.72
24390;BME280;12510;56.468;-3.004;2023-04-04T12:20:37;101328.22;;;19.74;59.51
24390;BME280;12510;56.468;-3.004;2023-04-04T12:23:06;101324.69;;;19.82;57.14
24390;BME280;12510;56.468;-3.004;2023-04-04T12:25:32;101333.06;;;19.01;59.92
24390;BME280;12510;56.468;-3.004;2023-04-04T12:28:02;101314.59;;;20.22;59.37
24390;BME280;12510;56.468;-3.004;2023-04-04T12:30:30;101306.28;;;19.87;57.78
24390;BME280;12510;56.468;-3.004;2023-04-04T12:33:34;101308.59;;;19.67;58.00
24390;BME280;12510;56.468;-3.004;2023-04-04T12:36:20;101298.09;;;20.78;57.45
24390;BME280;12510;56.468;-3.004;2023-04-04T12:39:01;101284.72;;;21.00;55.19
24390;BME280;12510;56.468;-3.004;2023-04-04T12:41:28;101288.31;;;20.70;55.36
24390;BME280;12510;56.468;-3.004;2023-04-04T12:44:05;101288.13;;;20.57;54.34
24390;BME280;12510;56.468;-3.004;2023-04-04T12:46:39;101284.38;;;20.36;55.73
24390;BME280;12510;56.468;-3.004;2023-04-04T12:49:06;101283.97;;;20.54;55.43
24390;BME280;12510;56.468;-3.004;2023-04-04T12:51:35;101278.56;;;20.18;57.08
24390;BME280;12510;56.468;-3.004;2023-04-04T12:54:04;101273.47;;;20.38;56.50
24390;BME280;12510;56.468;-3.004;2023-04-04T12:56:33;101278.69;;;21.13;58.35
24390;BME280;12510;56.468;-3.004;2023-04-04T12:59:01;101282.41;;;20.30;60.46
24390;BME280;12510;56.468;-3.004;2023-04-04T13:01:29;101270.06;;;21.60;57.90
24390;BME280;12510;56.468;-3.004;2023-04-04T13:04:00;101263.03;;;22.16;56.07
24390;BME280;12510;56.468;-3.004;2023-04-04T13:06:29;101263.31;;;20.03;56.86
24390;BME280;12510;56.468;-3.004;2023-04-04T13:08:56;101267.28;;;20.22;56.73
24390;BME280;12510;56.468;-3.004;2023-04-04T13:11:23;101264.31;;;19.87;59.68
24390;BME280;12510;56.468;-3.004;2023-04-04T13:14:02;101265.47;;;19.70;60.90
24390;BME280;12510;56.468;-3.004;2023-04-04T13:16:30;101267.19;;;20.01;61.53
24390;BME280;12510;56.468;-3.004;2023-04-04T13:18:57;101259.19;;;20.16;59.75
24390;BME280;12510;56.468;-3.004;2023-04-04T13:21:24;101259.88;;;20.54;58.27
24390;BME280;12510;56.468;-3.004;2023-04-04T13:23:51;101239.81;;;20.95;55.44
24390;BME280;12510;56.468;-3.004;2023-04-04T13:26:17;101225.25;;;21.26;54.46
24390;BME280;12510;56.468;-3.004;2023-04-04T13:28:44;101235.69;;;21.42;57.55
24390;BME280;12510;56.468;-3.004;2023-04-04T13:31:10;101233.38;;;20.74;54.78
24390;BME280;12510;56.468;-3.004;2023-04-04T13:33:38;101225.91;;;21.06;56.88
24390;BME280;12510;56.468;-3.004;2023-04-04T13:36:05;101225.97;;;21.91;59.33
24390;BME280;12510;56.468;-3.004;2023-04-04T13:38:31;101223.22;;;21.78;56.38
24390;BME280;12510;56.468;-3.004;2023-04-04T13:40:58;101225.75;;;21.58;60.80
24390;BME280;12510;56.468;-3.004;2023-04-04T13:43:26;101218.06;;;22.12;56.29
24390;BME280;12510;56.468;-3.004;2023-04-04T13:45:52;101214.22;;;21.92;57.37
24390;BME280;12510;56.468;-3.004;2023-04-04T13:48:20;101218.66;;;22.14;64.97
24390;BME280;12510;56.468;-3.004;2023-04-04T13:50:47;101206.56;;;22.31;55.74
24390;BME280;12510;56.468;-3.004;2023-04-04T13:53:16;101198.88;;;22.15;53.74
24390;BME280;12510;56.468;-3.004;2023-04-04T13:55:43;101201.06;;;22.04;54.67
24390;BME280;12510;56.468;-3.004;2023-04-04T13:58:09;101204.06;;;22.23;55.97
24390;BME280;12510;56.468;-3.004;2023-04-04T14:00:36;101191.06;;;22.20;54.28
24390;BME280;12510;56.468;-3.004;2023-04-04T14:03:03;101189.63;;;22.24;54.15
24390;BME280;12510;56.468;-3.004;2023-04-04T14:05:29;101191.63;;;22.64;53.80
24390;BME280;12510;56.468;-3.004;2023-04-04T14:07:56;101199.50;;;22.65;55.15
24390;BME280;12510;56.468;-3.004;2023-04-04T14:10:22;101184.94;;;22.39;50.96
24390;BME280;12510;56.468;-3.004;2023-04-04T14:12:49;101185.56;;;21.58;52.56
24390;BME280;12510;56.468;-3.004;2023-04-04T14:15:15;101194.69;;;21.42;55.19
24390;BME280;12510;56.468;-3.004;2023-04-04T14:17:42;101200.53;;;22.16;57.99
24390;BME280;12510;56.468;-3.004;2023-04-04T14:20:09;101183.00;;;21.00;55.66
24390;BME280;12510;56.468;-3.004;2023-04-04T14:22:36;101195.16;;;20.29;59.26
24390;BME280;12510;56.468;-3.004;2023-04-04T14:25:02;101180.41;;;20.33;58.25
24390;BME280;12510;56.468;-3.004;2023-04-04T14:27:30;101170.25;;;21.02;57.30
24390;BME280;12510;56.468;-3.004;2023-04-04T14:29:56;101178.59;;;20.70;57.54
24390;BME280;12510;56.468;-3.004;2023-04-04T14:32:23;101180.78;;;21.03;60.67
24390;BME280;12510;56.468;-3.004;2023-04-04T14:34:50;101176.22;;;21.54;61.07
24390;BME280;12510;56.468;-3.004;2023-04-04T14:37:17;101175.84;;;21.57;57.95
24390;BME280;12510;56.468;-3.004;2023-04-04T14:39:43;101183.81;;;21.22;57.09
24390;BME280;12510;56.468;-3.004;2023-04-04T14:42:10;101170.09;;;21.60;57.17
24390;BME280;12510;56.468;-3.004;2023-04-04T14:44:36;101169.69;;;21.35;60.00
24390;BME280;12510;56.468;-3.004;2023-04-04T14:47:03;101169.63;;;21.28;56.76
24390;BME280;12510;56.468;-3.004;2023-04-04T14:49:29;101167.25;;;21.12;60.73
24390;BME280;12510;56.468;-3.004;2023-04-04T14:54:40;101151.22;;;21.18;56.34
24390;BME280;12510;56.468;-3.004;2023-04-04T14:57:07;101154.34;;;21.22;59.46
24390;BME280;12510;56.468;-3.004;2023-04-04T14:59:33;101144.50;;;21.01;58.06
24390;BME280;12510;56.468;-3.004;2023-04-04T15:02:00;101152.03;;;20.90;58.75
24390;BME280;12510;56.468;-3.004;2023-04-04T15:04:26;101147.78;;;21.53;56.95
24390;BME280;12510;56.468;-3.004;2023-04-04T15:06:53;101149.75;;;21.16;59.09
24390;BME280;12510;56.468;-3.004;2023-04-04T15:09:21;101138.88;;;22.29;58.45
24390;BME280;12510;56.468;-3.004;2023-04-04T15:11:48;101122.47;;;21.05;59.41
24390;BME280;12510;56.468;-3.004;2023-04-04T15:14:15;101114.06;;;22.14;54.48
24390;BME280;12510;56.468;-3.004;2023-04-04T15:20:20;101113.16;;;22.55;60.21
24390;BME280;12510;56.468;-3.004;2023-04-04T15:26:53;101089.03;;;22.82;53.81
24390;BME280;12510;56.468;-3.004;2023-04-04T15:29:19;101104.09;;;22.63;59.64
24390;BME280;12510;56.468;-3.004;2023-04-04T15:31:46;101094.13;;;21.81;53.30
24390;BME280;12510;56.468;-3.004;2023-04-04T15:34:13;101093.06;;;20.84;53.15
24390;BME280;12510;56.468;-3.004;2023-04-04T15:36:40;101092.41;;;20.60;53.16
24390;BME280;12510;56.468;-3.004;2023-04-04T15:39:08;101093.50;;;20.07;57.17
24390;BME280;12510;56.468;-3.004;2023-04-04T15:41:36;101087.91;;;20.39;55.74
24390;BME280;12510;56.468;-3.004;2023-04-04T15:44:04;101083.97;;;21.06;60.22
24390;BME280;12510;56.468;-3.004;2023-04-04T15:46:31;101061.78;;;21.13;54.51
24390;BME280;12510;56.468;-3.004;2023-04-04T15:49:16;101073.75;;;21.87;54.36
24390;BME280;12510;56.468;-3.004;2023-04-04T15:51:43;101066.00;;;21.00;53.40
24390;BME280;12510;56.468;-3.004;2023-04-04T15:54:11;101065.72;;;21.52;53.11
24390;BME280;12510;56.468;-3.004;2023-04-04T15:56:37;101066.50;;;22.42;56.67
24390;BME280;12510;56.468;-3.004;2023-04-04T15:59:04;101068.97;;;21.75;56.43
24390;BME280;12510;56.468;-3.004;2023-04-04T16:01:32;101051.66;;;21.43;51.40
24390;BME280;12510;56.468;-3.004;2023-04-04T16:04:04;101065.81;;;21.30;57.88
24390;BME280;12510;56.468;-3.004;2023-04-04T16:11:07;101046.50;;;21.06;53.00
24390;BME280;12510;56.468;-3.004;2023-04-04T16:14:21;101044.91;;;20.19;53.84
24390;BME280;12510;56.468;-3.004;2023-04-04T16:17:01;101036.38;;;20.73;52.92
24390;BME280;12510;56.468;-3.004;2023-04-04T16:19:56;101033.28;;;19.90;52.94
24390;BME280;12510;56.468;-3.004;2023-04-04T16:22:48;101033.59;;;21.17;59.74
24390;BME280;12510;56.468;-3.004;2023-04-04T16:25:28;101013.41;;;20.86;51.34
24390;BME280;12510;56.468;-3.004;2023-04-04T16:28:12;101035.72;;;21.70;59.48
24390;BME280;12510;56.468;-3.004;2023-04-04T16:30:38;101017.06;;;22.03;52.95
24390;BME280;12510;56.468;-3.004;2023-04-04T16:33:24;101023.09;;;22.19;49.19
24390;BME280;12510;56.468;-3.004;2023-04-04T16:35:50;101033.50;;;21.80;59.12
24390;BME280;12510;56.468;-3.004;2023-04-04T16:38:22;101029.09;;;21.24;54.69
24390;BME280;12510;56.468;-3.004;2023-04-04T16:40:59;101025.13;;;20.35;52.44
24390;BME280;12510;56.468;-3.004;2023-04-04T16:43:37;101042.59;;;21.09;64.37
24390;BME280;12510;56.468;-3.004;2023-04-04T16:46:23;101023.56;;;21.67;58.45
24390;BME280;12510;56.468;-3.004;2023-04-04T16:49:07;101016.47;;;21.11;50.90